Time;durP1;ratioP1;P1;durP2;ratioP2;P2;SDS_P1;SDS_P2;PMS_P1;PMS_P2;Temp;Humidity;BMP_temperature;BMP_pressure;BME280_temperature;BME280_humidity;BME280_pressure;Samples;Min_cycle;Max_cycle;Signal;HPM_P1;HPM_P2
2022/05/11 00:01:51;;;;;;;;;;;16.00;83.60;;;;;;5137704;27;19947;-93
2022/05/11 00:04:16;;;;;;;;;;;15.90;83.80;;;;;;5137790;27;20003;-91
2022/05/11 00:06:42;;;;;;;;;;;15.90;83.70;;;;;;5138036;27;19959;-91
2022/05/11 00:09:08;;;;;;;;;;;15.90;83.60;;;;;;5137440;27;20488;-92
2022/05/11 00:11:34;;;;;;;;;;;15.90;83.60;;;;;;5137943;27;19935;-91
2022/05/11 00:14:00;;;;;;;;;;;15.90;83.60;;;;;;5137363;27;19964;-92
2022/05/11 00:16:26;;;;;;;;;;;15.80;83.80;;;;;;5119481;27;19922;-91
2022/05/11 00:18:52;;;;;;;;;;;15.80;83.80;;;;;;5137392;27;19929;-92
2022/05/11 00:21:17;;;;;;;;;;;15.80;83.80;;;;;;5137304;27;19936;-91
2022/05/11 00:23:43;;;;;;;;;;;15.70;84.40;;;;;;5137382;27;19955;-91
2022/05/11 00:26:09;;;;;;;;;;;15.70;84.70;;;;;;5137121;27;19951;-91
2022/05/11 00:28:34;;;;;;;;;;;15.60;84.50;;;;;;5136958;27;20376;-91
2022/05/11 00:31:00;;;;;;;;;;;15.50;84.80;;;;;;5137170;27;19907;-91
2022/05/11 00:33:26;;;;;;;;;;;15.40;85.40;;;;;;5137116;27;19912;-92
2022/05/11 00:35:52;;;;;;;;;;;15.30;85.70;;;;;;5118835;27;19907;-91
2022/05/11 00:38:18;;;;;;;;;;;15.30;85.70;;;;;;5118697;27;19914;-91
2022/05/11 00:40:46;;;;;;;;;;;15.30;86.40;;;;;;5137013;27;19907;-92
2022/05/11 00:43:12;;;;;;;;;;;15.20;87.30;;;;;;5136902;27;20268;-91
2022/05/11 00:45:41;;;;;;;;;;;15.00;88.10;;;;;;5136854;27;19929;-90
2022/05/11 00:50:52;;;;;;;;;;;15.00;88.10;;;;;;5137183;27;19972;-91
2022/05/11 00:53:18;;;;;;;;;;;14.90;87.40;;;;;;5136768;27;19949;-91
2022/05/11 00:55:47;;;;;;;;;;;14.90;86.00;;;;;;5136535;27;20047;-91
2022/05/11 00:58:16;;;;;;;;;;;14.90;84.40;;;;;;5136674;27;19939;-91
2022/05/11 01:00:45;;;;;;;;;;;15.00;83.80;;;;;;5136688;27;20377;-92
2022/05/11 01:03:14;;;;;;;;;;;15.00;83.40;;;;;;5136195;27;19914;-91
2022/05/11 01:05:41;;;;;;;;;;;15.00;83.20;;;;;;5136572;27;19908;-91
2022/05/11 01:08:07;;;;;;;;;;;15.10;83.30;;;;;;5136223;27;20047;-92
2022/05/11 01:10:32;;;;;;;;;;;15.10;84.60;;;;;;5136804;27;20351;-91
2022/05/11 01:12:59;;;;;;;;;;;15.10;84.60;;;;;;5136631;27;20410;-91
2022/05/11 01:15:26;;;;;;;;;;;15.20;84.10;;;;;;5136413;27;19934;-91
2022/05/11 01:17:51;;;;;;;;;;;15.20;83.60;;;;;;5117791;27;20029;-91
2022/05/11 01:20:19;;;;;;;;;;;15.20;83.40;;;;;;5136254;27;20320;-91
2022/05/11 01:23:00;;;;;;;;;;;15.20;83.40;;;;;;5136188;27;20399;-91
2022/05/11 01:25:26;;;;;;;;;;;15.20;83.80;;;;;;5136062;27;19935;-91
2022/05/11 01:27:59;;;;;;;;;;;15.10;83.90;;;;;;5136373;27;20015;-92
2022/05/11 01:30:25;;;;;;;;;;;15.00;84.70;;;;;;5136065;27;19964;-93
2022/05/11 01:32:52;;;;;;;;;;;14.90;84.80;;;;;;5135966;27;20300;-91
2022/05/11 01:35:32;;;;;;;;;;;14.80;84.80;;;;;;5135946;27;19935;-91
2022/05/11 01:38:06;;;;;;;;;;;14.80;85.30;;;;;;5135918;27;19986;-91
2022/05/11 01:40:32;;;;;;;;;;;14.70;85.70;;;;;;5135878;27;19940;-91
2022/05/11 01:42:57;;;;;;;;;;;14.70;86.10;;;;;;5135839;27;19991;-91
2022/05/11 01:45:23;;;;;;;;;;;14.80;86.00;;;;;;5117256;27;19975;-91
2022/05/11 01:47:48;;;;;;;;;;;14.80;86.00;;;;;;5135670;27;19920;-91
2022/05/11 01:50:14;;;;;;;;;;;14.90;85.70;;;;;;5135587;27;19948;-91
2022/05/11 01:52:39;;;;;;;;;;;14.90;85.70;;;;;;5135643;27;19951;-91
2022/05/11 01:55:05;;;;;;;;;;;14.90;85.60;;;;;;5135403;27;19938;-92
2022/05/11 01:57:31;;;;;;;;;;;14.90;85.60;;;;;;5135624;27;19908;-92
2022/05/11 01:59:56;;;;;;;;;;;14.90;85.60;;;;;;5116978;27;19950;-91
2022/05/11 02:02:22;;;;;;;;;;;14.90;85.50;;;;;;5135470;27;19953;-91
2022/05/11 02:07:50;;;;;;;;;;;14.90;85.30;;;;;;5135144;27;20290;-92
2022/05/11 02:10:19;;;;;;;;;;;14.90;85.40;;;;;;5135193;27;20047;-92
2022/05/11 02:12:44;;;;;;;;;;;14.90;85.40;;;;;;5083029;28;19974;-92
2022/05/11 02:15:10;;;;;;;;;;;14.80;85.60;;;;;;5113841;28;20357;-91
2022/05/11 02:17:36;;;;;;;;;;;14.60;86.20;;;;;;5114568;28;19908;-90
2022/05/11 02:20:02;;;;;;;;;;;14.50;86.30;;;;;;5114492;28;19943;-91
2022/05/11 02:22:28;;;;;;;;;;;14.40;86.70;;;;;;5114302;28;19999;-91
2022/05/11 02:24:54;;;;;;;;;;;14.40;87.00;;;;;;5114414;28;19908;-90
2022/05/11 02:27:20;;;;;;;;;;;14.40;86.90;;;;;;5134146;27;19914;-91
2022/05/11 02:29:45;;;;;;;;;;;14.40;87.00;;;;;;5135036;27;19911;-91
2022/05/11 02:32:11;;;;;;;;;;;14.30;87.20;;;;;;5134763;27;19972;-92
2022/05/11 02:37:20;;;;;;;;;;;14.30;87.50;;;;;;5134802;27;20290;-90
2022/05/11 02:39:48;;;;;;;;;;;14.30;87.30;;;;;;5134653;27;20364;-90
2022/05/11 02:42:14;;;;;;;;;;;14.30;87.30;;;;;;5134574;27;19947;-91
2022/05/11 02:44:40;;;;;;;;;;;14.40;87.10;;;;;;5134673;27;19932;-91
2022/05/11 02:47:06;;;;;;;;;;;14.30;87.10;;;;;;5134706;27;20004;-92
2022/05/11 02:49:31;;;;;;;;;;;14.30;87.20;;;;;;5134469;27;19919;-91
2022/05/11 02:51:58;;;;;;;;;;;14.40;87.10;;;;;;5134510;27;19907;-91
2022/05/11 02:54:24;;;;;;;;;;;14.40;87.00;;;;;;5134776;27;20051;-90
2022/05/11 02:56:49;;;;;;;;;;;14.40;86.80;;;;;;5115938;27;19955;-92
2022/05/11 02:59:15;;;;;;;;;;;14.40;86.60;;;;;;5116194;27;20396;-90
2022/05/11 03:01:40;;;;;;;;;;;14.30;87.00;;;;;;5134394;27;19943;-91
2022/05/11 03:04:06;;;;;;;;;;;14.20;87.10;;;;;;5134373;27;19948;-92
2022/05/11 03:06:31;;;;;;;;;;;14.20;87.30;;;;;;5134306;27;19915;-91
2022/05/11 03:08:57;;;;;;;;;;;14.10;87.30;;;;;;5134045;27;19964;-91
2022/05/11 03:11:22;;;;;;;;;;;14.10;87.20;;;;;;5134290;27;19907;-91
2022/05/11 03:13:48;;;;;;;;;;;14.10;87.60;;;;;;5134338;28;19916;-91
2022/05/11 03:16:13;;;;;;;;;;;14.00;88.10;;;;;;5134247;28;19960;-91
2022/05/11 03:18:39;;;;;;;;;;;14.00;88.00;;;;;;5134218;28;19914;-91
2022/05/11 03:21:05;;;;;;;;;;;13.90;88.30;;;;;;5134088;28;19914;-91
2022/05/11 03:23:30;;;;;;;;;;;13.90;88.20;;;;;;5134076;28;19947;-90
2022/05/11 03:25:56;;;;;;;;;;;13.90;88.20;;;;;;5136892;27;19987;-90
2022/05/11 03:28:21;;;;;;;;;;;14.00;88.10;;;;;;5138401;27;19949;-91
2022/05/11 03:30:47;;;;;;;;;;;14.00;88.10;;;;;;5138416;27;20253;-91
2022/05/11 03:35:57;;;;;;;;;;;14.00;88.20;;;;;;5138366;27;20395;-91
2022/05/11 03:38:22;;;;;;;;;;;14.10;88.30;;;;;;5138280;27;19985;-91
2022/05/11 03:40:48;;;;;;;;;;;14.10;88.10;;;;;;5138268;27;20370;-90
2022/05/11 03:43:13;;;;;;;;;;;14.10;88.00;;;;;;5138214;27;19950;-91
2022/05/11 03:45:39;;;;;;;;;;;14.20;87.80;;;;;;5119660;27;20002;-91
2022/05/11 03:48:04;;;;;;;;;;;14.20;87.60;;;;;;5138082;27;19962;-91
2022/05/11 03:50:30;;;;;;;;;;;14.20;87.40;;;;;;5137843;27;19918;-91
2022/05/11 03:52:56;;;;;;;;;;;14.20;87.30;;;;;;5137827;27;19918;-92
2022/05/11 03:55:22;;;;;;;;;;;14.10;87.30;;;;;;5137938;27;19908;-91
2022/05/11 03:57:48;;;;;;;;;;;14.10;87.50;;;;;;5137764;27;20429;-91
2022/05/11 04:00:15;;;;;;;;;;;13.90;87.60;;;;;;5137889;27;19908;-92
2022/05/11 04:02:41;;;;;;;;;;;13.80;88.10;;;;;;5137724;27;20420;-90
2022/05/11 04:05:09;;;;;;;;;;;13.80;88.40;;;;;;5137806;27;19952;-90
2022/05/11 04:07:34;;;;;;;;;;;13.70;88.70;;;;;;5137632;27;19907;-91
2022/05/11 04:10:01;;;;;;;;;;;13.80;88.70;;;;;;5137331;27;20395;-91
2022/05/11 04:12:29;;;;;;;;;;;13.90;88.50;;;;;;5137595;27;19956;-91
2022/05/11 04:14:55;;;;;;;;;;;13.90;88.30;;;;;;5137426;27;19945;-91
2022/05/11 04:17:21;;;;;;;;;;;14.00;88.20;;;;;;5137418;27;19931;-91
2022/05/11 04:19:47;;;;;;;;;;;14.10;87.90;;;;;;5137357;27;19911;-91
2022/05/11 04:27:51;;;;;;;;;;;14.00;87.80;;;;;;5111230;27;20324;-91
2022/05/11 04:30:18;;;;;;;;;;;13.90;88.90;;;;;;5111389;28;20010;-91
2022/05/11 04:32:44;;;;;;;;;;;13.80;89.10;;;;;;5110946;28;19964;-92
2022/05/11 04:35:09;;;;;;;;;;;13.90;89.50;;;;;;5111022;28;19908;-91
2022/05/11 04:37:35;;;;;;;;;;;13.90;89.50;;;;;;5109612;28;19943;-91
2022/05/11 04:40:01;;;;;;;;;;;14.00;89.40;;;;;;5110989;28;19953;-91
2022/05/11 04:42:27;;;;;;;;;;;14.00;89.40;;;;;;5110940;28;19983;-91
2022/05/11 04:44:53;;;;;;;;;;;14.00;89.20;;;;;;5110832;28;20394;-91
2022/05/11 04:47:19;;;;;;;;;;;14.10;89.40;;;;;;5110766;28;19943;-91
2022/05/11 04:49:45;;;;;;;;;;;14.30;89.30;;;;;;5110765;28;19934;-92
2022/05/11 04:52:13;;;;;;;;;;;14.40;89.00;;;;;;5110717;28;19935;-90
2022/05/11 04:54:40;;;;;;;;;;;14.50;88.90;;;;;;5110844;28;20393;-91
2022/05/11 04:57:06;;;;;;;;;;;14.60;88.50;;;;;;5127855;28;20006;-91
2022/05/11 04:59:32;;;;;;;;;;;14.60;88.30;;;;;;5126135;28;19964;-92
2022/05/11 05:01:59;;;;;;;;;;;14.70;88.30;;;;;;5129292;28;19951;-92
2022/05/11 05:04:27;;;;;;;;;;;14.80;88.20;;;;;;5122509;28;19976;-90
2022/05/11 05:06:53;;;;;;;;;;;14.90;88.20;;;;;;5125674;28;19951;-91
2022/05/11 05:09:19;;;;;;;;;;;15.00;88.00;;;;;;5110853;28;19943;-91
2022/05/11 05:11:44;;;;;;;;;;;15.10;87.80;;;;;;5110261;28;19908;-91
2022/05/11 05:14:11;;;;;;;;;;;15.20;87.20;;;;;;5110258;28;20297;-91
2022/05/11 05:16:36;;;;;;;;;;;15.30;87.30;;;;;;5110397;28;19946;-91
2022/05/11 05:19:02;;;;;;;;;;;15.30;87.40;;;;;;5110008;28;19950;-91
2022/05/11 05:21:28;;;;;;;;;;;15.40;87.50;;;;;;5137844;27;19976;-90
2022/05/11 05:23:54;;;;;;;;;;;15.40;87.40;;;;;;5088982;28;19927;-91
2022/05/11 05:26:20;;;;;;;;;;;15.60;87.20;;;;;;5089551;28;20442;-91
2022/05/11 05:31:30;;;;;;;;;;;15.80;87.40;;;;;;5088978;28;19967;-90
2022/05/11 05:33:59;;;;;;;;;;;15.90;87.30;;;;;;5089059;28;20395;-91
2022/05/11 05:36:33;;;;;;;;;;;15.90;87.20;;;;;;5081953;28;19995;-91
2022/05/11 05:38:58;;;;;;;;;;;16.10;87.20;;;;;;5071621;28;19955;-91
2022/05/11 05:41:25;;;;;;;;;;;16.30;87.10;;;;;;5075859;28;19953;-92
2022/05/11 05:43:51;;;;;;;;;;;16.30;87.00;;;;;;5072642;28;20327;-90
2022/05/11 05:46:17;;;;;;;;;;;16.40;86.70;;;;;;5072370;28;20098;-91
2022/05/11 05:48:43;;;;;;;;;;;16.60;86.70;;;;;;5075453;28;19912;-91
2022/05/11 05:51:09;;;;;;;;;;;16.70;86.70;;;;;;5070316;28;19951;-90
2022/05/11 05:53:35;;;;;;;;;;;16.80;86.00;;;;;;5083092;28;20296;-91
2022/05/11 05:56:01;;;;;;;;;;;16.90;85.10;;;;;;5083056;28;20027;-91
2022/05/11 05:58:27;;;;;;;;;;;17.00;84.60;;;;;;5077445;28;20449;-90
2022/05/11 06:00:53;;;;;;;;;;;17.20;83.30;;;;;;5073577;28;20019;-91
2022/05/11 06:03:23;;;;;;;;;;;17.40;83.30;;;;;;5075440;28;20028;-90
2022/05/11 06:05:48;;;;;;;;;;;17.50;83.60;;;;;;5075021;28;19958;-90
2022/05/11 06:08:16;;;;;;;;;;;17.60;81.80;;;;;;5079667;28;19952;-90
2022/05/11 06:10:45;;;;;;;;;;;17.70;82.80;;;;;;5074154;28;20016;-90
2022/05/11 06:13:15;;;;;;;;;;;17.80;83.20;;;;;;5080942;28;19940;-90
2022/05/11 06:15:41;;;;;;;;;;;17.80;84.00;;;;;;5076889;28;20030;-90
2022/05/11 06:18:07;;;;;;;;;;;17.80;83.90;;;;;;5079705;28;20034;-89
2022/05/11 06:20:33;;;;;;;;;;;17.90;84.00;;;;;;5069714;28;19984;-89
2022/05/11 06:22:59;;;;;;;;;;;18.00;84.30;;;;;;5066057;28;19912;-91
2022/05/11 06:25:24;;;;;;;;;;;18.10;83.00;;;;;;5073541;28;19933;-90
2022/05/11 06:27:50;;;;;;;;;;;18.10;81.50;;;;;;5073150;28;19944;-90
2022/05/11 06:30:16;;;;;;;;;;;18.30;81.20;;;;;;5075412;28;19919;-90
2022/05/11 07:03:04;;;;;;;;;;;18.30;82.00;;;;;;5087338;27;20299;-91
2022/05/11 07:05:30;;;;;;;;;;;19.80;69.00;;;;;;5095786;28;19935;-91
2022/05/11 07:07:56;;;;;;;;;;;19.90;67.90;;;;;;5100497;28;20356;-90
2022/05/11 07:10:22;;;;;;;;;;;20.00;66.80;;;;;;5100464;28;19999;-91
2022/05/11 07:12:47;;;;;;;;;;;20.10;67.10;;;;;;5092430;28;20284;-90
2022/05/11 07:15:14;;;;;;;;;;;20.30;67.40;;;;;;5090216;28;19923;-91
2022/05/11 07:17:40;;;;;;;;;;;20.40;66.30;;;;;;5098821;28;19912;-91
2022/05/11 07:20:07;;;;;;;;;;;20.50;65.60;;;;;;5102548;28;19953;-90
2022/05/11 07:22:32;;;;;;;;;;;20.50;65.20;;;;;;5093075;28;19917;-91
2022/05/11 07:24:58;;;;;;;;;;;20.60;65.80;;;;;;5087125;28;19931;-91
2022/05/11 07:27:24;;;;;;;;;;;20.80;65.80;;;;;;5089150;28;19916;-91
2022/05/11 07:29:53;;;;;;;;;;;20.80;63.60;;;;;;5087618;28;19983;-90
2022/05/11 07:32:18;;;;;;;;;;;20.90;62.60;;;;;;5081387;28;19913;-91
2022/05/11 07:34:44;;;;;;;;;;;21.00;62.80;;;;;;5080880;28;19920;-90
2022/05/11 07:37:09;;;;;;;;;;;21.00;63.80;;;;;;5091647;28;19912;-91
2022/05/11 07:39:35;;;;;;;;;;;21.10;62.90;;;;;;5087158;28;20262;-91
2022/05/11 07:42:01;;;;;;;;;;;21.10;62.90;;;;;;5086248;28;20293;-91
2022/05/11 07:44:26;;;;;;;;;;;21.10;63.20;;;;;;5079922;28;19927;-91
2022/05/11 07:46:52;;;;;;;;;;;21.10;63.00;;;;;;5086401;28;19912;-91
2022/05/11 07:49:18;;;;;;;;;;;21.20;63.50;;;;;;5083793;28;19977;-92
2022/05/11 07:51:45;;;;;;;;;;;21.20;64.00;;;;;;5087281;28;19920;-91
2022/05/11 07:54:14;;;;;;;;;;;21.20;64.80;;;;;;5085974;28;20006;-91
2022/05/11 08:02:08;;;;;;;;;;;21.50;64.20;;;;;;5091161;28;19928;-92
2022/05/11 08:04:34;;;;;;;;;;;21.60;63.80;;;;;;5091635;28;20378;-91
2022/05/11 08:07:00;;;;;;;;;;;21.70;62.90;;;;;;5073866;28;19927;-92
2022/05/11 08:09:26;;;;;;;;;;;21.70;61.50;;;;;;5082362;28;19944;-92
2022/05/11 08:11:54;;;;;;;;;;;21.80;62.10;;;;;;5084770;28;19920;-91
2022/05/11 08:14:20;;;;;;;;;;;21.80;60.80;;;;;;5064978;28;19913;-92
2022/05/11 08:16:51;;;;;;;;;;;21.90;60.40;;;;;;5068842;28;20384;-91
2022/05/11 08:19:17;;;;;;;;;;;22.00;61.80;;;;;;5069273;28;19935;-92
2022/05/11 08:21:42;;;;;;;;;;;22.00;62.90;;;;;;5074054;28;20366;-91
2022/05/11 08:24:08;;;;;;;;;;;22.10;63.40;;;;;;5072513;28;19912;-91
2022/05/11 08:26:33;;;;;;;;;;;22.20;63.70;;;;;;5074985;28;19942;-91
2022/05/11 08:28:59;;;;;;;;;;;22.30;64.60;;;;;;5077619;28;20258;-91
2022/05/11 08:34:09;;;;;;;;;;;22.40;64.90;;;;;;5072389;28;19920;-90
2022/05/11 08:36:36;;;;;;;;;;;22.50;62.30;;;;;;5067650;28;19912;-91
2022/05/11 08:39:02;;;;;;;;;;;22.50;62.70;;;;;;5074501;28;19920;-92
2022/05/11 08:41:36;;;;;;;;;;;22.60;60.90;;;;;;5079779;28;19920;-92
2022/05/11 08:44:15;;;;;;;;;;;22.80;62.40;;;;;;5073146;28;19916;-91
2022/05/11 08:46:43;;;;;;;;;;;22.80;63.40;;;;;;5077808;28;19943;-91
2022/05/11 08:49:17;;;;;;;;;;;22.90;63.90;;;;;;5076603;28;19920;-91
2022/05/11 08:51:51;;;;;;;;;;;23.00;61.60;;;;;;5076355;28;19913;-91
2022/05/11 08:54:28;;;;;;;;;;;23.00;62.40;;;;;;5086516;28;19948;-91
2022/05/11 08:56:55;;;;;;;;;;;23.00;63.10;;;;;;5072445;28;20041;-91
2022/05/11 08:59:26;;;;;;;;;;;23.10;63.70;;;;;;5070285;28;19920;-91
2022/05/11 09:01:59;;;;;;;;;;;23.20;62.40;;;;;;5072621;28;19956;-91
2022/05/11 09:04:45;;;;;;;;;;;23.30;62.70;;;;;;5072591;28;20055;-91
2022/05/11 09:07:10;;;;;;;;;;;23.40;65.50;;;;;;5065557;28;19927;-92
2022/05/11 09:09:37;;;;;;;;;;;23.50;61.30;;;;;;5071616;28;19921;-91
2022/05/11 09:12:03;;;;;;;;;;;23.50;59.20;;;;;;5070979;28;20369;-91
2022/05/11 09:14:31;;;;;;;;;;;23.50;60.30;;;;;;5070444;28;21088;-91
2022/05/11 09:16:57;;;;;;;;;;;23.60;60.70;;;;;;5069515;28;19921;-91
2022/05/11 09:19:29;;;;;;;;;;;23.70;61.00;;;;;;5073301;28;20308;-91
2022/05/11 09:21:54;;;;;;;;;;;23.80;60.80;;;;;;5073440;28;19990;-91
2022/05/11 09:24:25;;;;;;;;;;;23.90;59.30;;;;;;5075551;28;20344;-91
2022/05/11 09:27:11;;;;;;;;;;;23.90;58.70;;;;;;5077106;28;19917;-91
2022/05/11 09:29:41;;;;;;;;;;;24.00;55.50;;;;;;5074655;28;20422;-92
2022/05/11 09:32:24;;;;;;;;;;;24.00;57.60;;;;;;5075452;28;19919;-92
2022/05/11 09:34:50;;;;;;;;;;;24.00;55.70;;;;;;5087147;28;19931;-91
2022/05/11 09:37:36;;;;;;;;;;;24.10;58.40;;;;;;5073403;28;20358;-92
2022/05/11 09:40:07;;;;;;;;;;;24.20;59.20;;;;;;5074065;28;19953;-91
2022/05/11 09:42:33;;;;;;;;;;;24.20;55.40;;;;;;5074442;28;19916;-91
2022/05/11 09:44:59;;;;;;;;;;;24.30;55.00;;;;;;5071853;28;20007;-91
2022/05/11 09:47:33;;;;;;;;;;;24.50;55.20;;;;;;5074043;28;19919;-91
2022/05/11 09:50:14;;;;;;;;;;;24.50;55.90;;;;;;5073154;28;19919;-91
2022/05/11 09:52:39;;;;;;;;;;;24.60;57.60;;;;;;5072465;28;19958;-91
2022/05/11 09:55:16;;;;;;;;;;;24.60;54.70;;;;;;5072965;28;19913;-91
2022/05/11 09:57:51;;;;;;;;;;;24.60;56.20;;;;;;5067340;28;19974;-91
2022/05/11 10:00:19;;;;;;;;;;;24.70;56.30;;;;;;5074282;28;19920;-91
2022/05/11 10:02:53;;;;;;;;;;;24.80;56.40;;;;;;5078343;28;19924;-91
2022/05/11 10:05:24;;;;;;;;;;;24.90;57.60;;;;;;5077838;28;19912;-92
2022/05/11 10:08:02;;;;;;;;;;;24.80;53.80;;;;;;5067076;28;19913;-91
2022/05/11 10:10:37;;;;;;;;;;;24.90;57.00;;;;;;5069479;28;20006;-92
2022/05/11 10:13:10;;;;;;;;;;;25.00;53.50;;;;;;5068820;28;19912;-92
2022/05/11 10:24:14;;;;;;;;;;;25.10;55.30;;;;;;5073420;28;20016;-91
2022/05/11 10:26:58;;;;;;;;;;;25.20;55.00;;;;;;5073367;28;19908;-91
2022/05/11 10:29:23;;;;;;;;;;;25.20;54.90;;;;;;5073426;28;19923;-91
2022/05/11 10:31:53;;;;;;;;;;;25.30;55.30;;;;;;5073358;28;19909;-92
2022/05/11 10:34:48;;;;;;;;;;;25.30;53.50;;;;;;5073268;28;19999;-91
2022/05/11 10:37:19;;;;;;;;;;;25.40;52.10;;;;;;5067984;28;19915;-91
2022/05/11 10:39:56;;;;;;;;;;;25.50;52.80;;;;;;5072967;28;19954;-92
2022/05/11 10:42:28;;;;;;;;;;;25.60;53.20;;;;;;5073160;28;19919;-92
2022/05/11 10:45:12;;;;;;;;;;;25.70;52.70;;;;;;5073545;28;19908;-91
2022/05/11 10:47:37;;;;;;;;;;;25.80;53.30;;;;;;5073144;28;19948;-92
2022/05/11 10:50:10;;;;;;;;;;;25.90;51.30;;;;;;5073211;28;19915;-92
2022/05/11 10:52:47;;;;;;;;;;;26.00;50.40;;;;;;5073206;28;19909;-91
2022/05/11 10:55:13;;;;;;;;;;;26.20;53.60;;;;;;5073133;28;19957;-91
2022/05/11 10:57:41;;;;;;;;;;;26.20;48.20;;;;;;5073140;28;19908;-91
2022/05/11 11:00:09;;;;;;;;;;;26.20;45.50;;;;;;5073156;28;19935;-91
2022/05/11 11:02:46;;;;;;;;;;;26.30;48.70;;;;;;5072825;28;20393;-91
2022/05/11 11:05:12;;;;;;;;;;;26.20;47.00;;;;;;5073064;28;19909;-91
2022/05/11 11:07:40;;;;;;;;;;;26.40;47.80;;;;;;5073056;28;20384;-92
2022/05/11 11:10:24;;;;;;;;;;;26.50;45.60;;;;;;5072627;28;19912;-91
2022/05/11 11:12:51;;;;;;;;;;;26.70;46.90;;;;;;5073361;28;19909;-91
2022/05/11 11:15:18;;;;;;;;;;;26.60;49.50;;;;;;5072982;28;19947;-91
2022/05/11 11:17:46;;;;;;;;;;;26.60;45.70;;;;;;5072936;28;20377;-92
2022/05/11 11:20:14;;;;;;;;;;;26.60;45.20;;;;;;5073247;28;19916;-92
2022/05/11 11:22:58;;;;;;;;;;;26.50;46.00;;;;;;5071286;28;19963;-91
2022/05/11 11:25:24;;;;;;;;;;;26.70;48.80;;;;;;5072351;28;19916;-91
2022/05/11 11:28:04;;;;;;;;;;;26.80;47.80;;;;;;5071379;28;19935;-91
2022/05/11 11:30:30;;;;;;;;;;;26.90;48.40;;;;;;5071844;28;20320;-92
2022/05/11 11:33:15;;;;;;;;;;;27.00;47.50;;;;;;5071825;28;19912;-92
2022/05/11 11:35:42;;;;;;;;;;;27.00;48.60;;;;;;5070924;28;19916;-92
2022/05/11 11:38:09;;;;;;;;;;;26.90;48.50;;;;;;5075562;28;20014;-92
2022/05/11 11:40:35;;;;;;;;;;;26.90;45.50;;;;;;5073521;28;20543;-92
2022/05/11 11:43:38;;;;;;;;;;;27.00;45.90;;;;;;5068257;28;19927;-92
2022/05/11 11:45:50;;;;;;;;;;;27.20;46.90;;;;;;5070832;28;19916;-92
2022/05/11 11:48:21;;;;;;;;;;;27.20;43.30;;;;;;5074689;28;19935;-92
2022/05/11 11:50:53;;;;;;;;;;;27.20;43.70;;;;;;5081914;28;19912;-92
2022/05/11 11:53:37;;;;;;;;;;;27.20;42.90;;;;;;5074340;28;19912;-92
2022/05/11 11:56:21;;;;;;;;;;;27.50;43.50;;;;;;5082166;28;20362;-92
2022/05/11 11:58:47;;;;;;;;;;;27.70;44.20;;;;;;5077002;28;19913;-92
2022/05/11 12:01:15;;;;;;;;;;;27.70;43.60;;;;;;5074249;28;19920;-92
2022/05/11 12:03:52;;;;;;;;;;;27.60;44.10;;;;;;5086985;28;20338;-92
2022/05/11 12:15:01;;;;;;;;;;;27.80;43.70;;;;;;5083642;28;20009;-92
2022/05/11 12:17:31;;;;;;;;;;;28.20;47.20;;;;;;5069770;28;19909;-92
2022/05/11 12:19:58;;;;;;;;;;;28.10;43.20;;;;;;5085352;28;19947;-92
2022/05/11 12:22:25;;;;;;;;;;;28.20;42.30;;;;;;5074262;28;20003;-92
2022/05/11 12:25:23;;;;;;;;;;;28.30;45.00;;;;;;5065931;28;19917;-92
2022/05/11 12:27:49;;;;;;;;;;;28.40;43.80;;;;;;5063052;28;19999;-92
2022/05/11 12:30:30;;;;;;;;;;;28.30;42.40;;;;;;5087169;28;19912;-92
2022/05/11 12:32:59;;;;;;;;;;;28.40;44.70;;;;;;5085049;28;19951;-92
2022/05/11 12:35:31;;;;;;;;;;;28.70;43.50;;;;;;5082098;28;19921;-92
2022/05/11 12:38:00;;;;;;;;;;;28.50;41.30;;;;;;5074155;28;19912;-92
2022/05/11 12:40:26;;;;;;;;;;;28.40;41.00;;;;;;5069853;28;19912;-92
2022/05/11 12:42:53;;;;;;;;;;;28.50;42.20;;;;;;5074669;28;19960;-92
2022/05/11 12:45:19;;;;;;;;;;;28.40;41.00;;;;;;5071438;28;19912;-91
2022/05/11 12:47:46;;;;;;;;;;;28.70;43.70;;;;;;5090447;28;20327;-92
2022/05/11 12:50:32;;;;;;;;;;;28.70;40.70;;;;;;5074954;28;19959;-92
2022/05/11 12:53:20;;;;;;;;;;;29.00;41.90;;;;;;5084016;28;19939;-92
2022/05/11 12:55:50;;;;;;;;;;;29.60;41.80;;;;;;5091807;28;19908;-92
2022/05/11 12:58:21;;;;;;;;;;;30.50;37.90;;;;;;5065395;28;19908;-92
2022/05/11 13:00:54;;;;;;;;;;;30.60;41.00;;;;;;5071460;28;19912;-92
2022/05/11 13:03:23;;;;;;;;;;;30.90;38.90;;;;;;5073797;28;19913;-92
2022/05/11 13:05:49;;;;;;;;;;;31.20;38.90;;;;;;5073074;28;19912;-92
2022/05/11 13:08:15;;;;;;;;;;;31.50;37.30;;;;;;5065520;28;19956;-92
2022/05/11 13:32:21;;;;;;;;;;;30.80;36.90;;;;;;5078508;28;20346;-92
2022/05/11 13:34:47;;;;;;;;;;;31.10;37.10;;;;;;5073829;28;20015;-92
2022/05/11 13:37:26;;;;;;;;;;;31.20;36.80;;;;;;5070086;28;20429;-91
2022/05/11 13:39:52;;;;;;;;;;;31.20;37.30;;;;;;5074167;28;20565;-91
2022/05/11 13:42:21;;;;;;;;;;;30.90;37.80;;;;;;5080787;28;20180;-92
2022/05/11 13:44:56;;;;;;;;;;;31.30;38.30;;;;;;5069576;28;20007;-91
2022/05/11 13:50:34;;;;;;;;;;;31.90;36.60;;;;;;5058818;28;19958;-92
2022/05/11 13:52:59;;;;;;;;;;;31.70;35.60;;;;;;5059270;28;19912;-91
2022/05/11 13:55:33;;;;;;;;;;;31.80;38.00;;;;;;5069038;28;20023;-92
2022/05/11 13:58:18;;;;;;;;;;;31.40;36.10;;;;;;5069415;28;19912;-92
2022/05/11 14:00:44;;;;;;;;;;;31.90;35.80;;;;;;5066092;28;19913;-92
2022/05/11 14:03:13;;;;;;;;;;;31.00;35.60;;;;;;5071957;28;19942;-92
2022/05/11 14:05:38;;;;;;;;;;;30.80;36.40;;;;;;5064229;28;20431;-92
2022/05/11 14:08:04;;;;;;;;;;;31.50;36.70;;;;;;5066729;28;20003;-92
2022/05/11 14:10:29;;;;;;;;;;;32.10;35.30;;;;;;5071067;28;19912;-92
2022/05/11 14:12:55;;;;;;;;;;;32.00;35.20;;;;;;5070869;28;19912;-92
2022/05/11 14:15:20;;;;;;;;;;;32.00;36.30;;;;;;5068952;28;19913;-92
2022/05/11 14:17:48;;;;;;;;;;;31.70;34.40;;;;;;5070969;28;20273;-92
2022/05/11 14:20:14;;;;;;;;;;;31.40;35.60;;;;;;5073451;28;19913;-92
2022/05/11 14:22:41;;;;;;;;;;;31.90;35.40;;;;;;5071490;28;19916;-93
2022/05/11 14:25:07;;;;;;;;;;;32.30;34.20;;;;;;5071357;28;19935;-92
2022/05/11 14:27:32;;;;;;;;;;;32.60;33.90;;;;;;5069748;28;19912;-92
2022/05/11 14:29:58;;;;;;;;;;;33.00;33.90;;;;;;5069848;28;20329;-92
2022/05/11 14:32:26;;;;;;;;;;;32.90;34.90;;;;;;5071722;28;20298;-92
2022/05/11 14:34:52;;;;;;;;;;;32.70;34.50;;;;;;5068954;28;19974;-91
2022/05/11 14:37:17;;;;;;;;;;;32.60;36.60;;;;;;5065431;28;19912;-91
2022/05/11 14:39:44;;;;;;;;;;;32.90;35.70;;;;;;5067713;28;20000;-92
2022/05/11 14:42:09;;;;;;;;;;;32.90;34.80;;;;;;5070281;28;19917;-93
2022/05/11 14:44:35;;;;;;;;;;;32.80;34.80;;;;;;5067523;28;19927;-93
2022/05/11 14:47:00;;;;;;;;;;;32.60;33.90;;;;;;5070742;28;19912;-92
2022/05/11 14:49:26;;;;;;;;;;;32.20;33.60;;;;;;5070007;28;19916;-92
2022/05/11 14:51:52;;;;;;;;;;;32.00;35.00;;;;;;5071135;28;19912;-92
2022/05/11 14:54:17;;;;;;;;;;;31.80;33.80;;;;;;5068874;28;19913;-92
2022/05/11 14:56:43;;;;;;;;;;;31.80;34.90;;;;;;5069507;28;19920;-93
2022/05/11 15:01:57;;;;;;;;;;;32.20;33.70;;;;;;5079949;22;19943;-92
2022/05/11 15:04:31;;;;;;;;;;;32.40;34.30;;;;;;5073121;28;19913;-92
2022/05/11 15:06:57;;;;;;;;;;;31.90;35.10;;;;;;5068493;28;19920;-92
2022/05/11 15:09:23;;;;;;;;;;;32.20;34.70;;;;;;5069367;28;19908;-92
2022/05/11 15:14:33;;;;;;;;;;;32.90;33.90;;;;;;5073015;28;19954;-92
2022/05/11 15:17:25;;;;;;;;;;;33.00;34.50;;;;;;5070405;28;19916;-92
2022/05/11 15:19:51;;;;;;;;;;;32.70;33.30;;;;;;5071858;28;20054;-91
2022/05/11 15:22:16;;;;;;;;;;;32.40;34.10;;;;;;5072640;28;20007;-92
2022/05/11 15:24:42;;;;;;;;;;;31.80;34.40;;;;;;5072501;28;20030;-92
2022/05/11 15:27:08;;;;;;;;;;;31.60;35.50;;;;;;5078518;28;19999;-92
2022/05/11 15:29:34;;;;;;;;;;;30.90;34.70;;;;;;5075843;28;19916;-92
2022/05/11 15:32:00;;;;;;;;;;;30.80;37.80;;;;;;5079781;28;19935;-93
2022/05/11 15:34:28;;;;;;;;;;;31.10;37.40;;;;;;5078921;28;19919;-92
2022/05/11 15:36:56;;;;;;;;;;;30.90;37.90;;;;;;5076451;28;19935;-92
2022/05/11 15:39:21;;;;;;;;;;;31.20;36.20;;;;;;5081771;28;19916;-93
2022/05/11 15:41:47;;;;;;;;;;;31.20;37.50;;;;;;5079862;28;19920;-92
2022/05/11 15:44:12;;;;;;;;;;;31.10;35.10;;;;;;5076815;28;19986;-92
2022/05/11 15:46:38;;;;;;;;;;;30.80;37.10;;;;;;5076837;28;20071;-92
2022/05/11 15:49:03;;;;;;;;;;;30.70;37.70;;;;;;5079023;28;19919;-92
2022/05/11 15:51:29;;;;;;;;;;;30.70;39.00;;;;;;5077233;28;19919;-92
2022/05/11 15:53:55;;;;;;;;;;;30.70;38.20;;;;;;5077041;28;19916;-92
2022/05/11 15:56:21;;;;;;;;;;;30.60;38.10;;;;;;5092374;28;19908;-92
2022/05/11 15:58:47;;;;;;;;;;;30.40;39.40;;;;;;5092592;28;19915;-92
2022/05/11 16:01:14;;;;;;;;;;;30.20;37.90;;;;;;5074864;28;19913;-92
2022/05/11 16:03:41;;;;;;;;;;;29.90;38.70;;;;;;5077082;28;19913;-92
2022/05/11 16:06:07;;;;;;;;;;;29.70;38.40;;;;;;5080918;28;20434;-92
2022/05/11 16:08:32;;;;;;;;;;;29.70;38.50;;;;;;5077914;28;19913;-92